createdAt,value
2018-03-26T00:00:06.950Z,21.52
2018-03-26T00:00:19.115Z,21.52
2018-03-26T00:00:31.280Z,21.52
2018-03-26T00:00:43.736Z,21.52
2018-03-26T00:00:55.879Z,21.52
2018-03-26T00:01:08.019Z,21.52
2018-03-26T00:01:20.175Z,21.52
2018-03-26T00:01:32.324Z,21.52
2018-03-26T00:01:44.476Z,21.83
2018-03-26T00:01:56.614Z,21.83
2018-03-26T00:02:08.751Z,21.83
2018-03-26T00:02:20.930Z,21.83
2018-03-26T00:02:33.233Z,21.83
2018-03-26T00:02:45.432Z,21.83
2018-03-26T00:02:57.555Z,21.83
2018-03-26T00:03:09.686Z,21.83
2018-03-26T00:03:21.823Z,21.83
2018-03-26T00:03:33.992Z,21.83
2018-03-26T00:03:46.143Z,21.83
2018-03-26T00:03:58.378Z,21.83
2018-03-26T00:04:10.541Z,21.83
2018-03-26T00:04:22.661Z,21.83
2018-03-26T00:04:34.837Z,21.83
2018-03-26T00:04:46.987Z,22.57
2018-03-26T00:04:59.123Z,22.57
2018-03-26T00:05:11.282Z,22.57
2018-03-26T00:05:23.432Z,22.57
2018-03-26T00:05:35.568Z,22.57
2018-03-26T00:05:47.733Z,22.57
2018-03-26T00:05:59.882Z,22.57
2018-03-26T00:06:12.015Z,22.57
2018-03-26T00:06:24.161Z,22.57
2018-03-26T00:06:36.307Z,22.57
2018-03-26T00:06:48.480Z,22.57
2018-03-26T00:07:00.626Z,22.57
2018-03-26T00:07:12.772Z,22.57
2018-03-26T00:07:24.922Z,22.57
2018-03-26T00:07:37.056Z,22.57
2018-03-26T00:07:49.323Z,21.46
2018-03-26T00:08:01.466Z,21.46
2018-03-26T00:08:13.602Z,21.46
2018-03-26T00:08:25.738Z,21.46
2018-03-26T00:08:37.930Z,21.46
2018-03-26T00:08:50.081Z,21.46
2018-03-26T00:09:02.240Z,21.46
2018-03-26T00:09:14.403Z,21.46
2018-03-26T00:09:26.537Z,21.46
2018-03-26T00:09:38.677Z,21.46
2018-03-26T00:09:50.823Z,21.46
2018-03-26T00:10:02.991Z,21.46
2018-03-26T00:10:15.157Z,21.46
2018-03-26T00:10:27.293Z,21.46
2018-03-26T00:10:39.430Z,21.46
2018-03-26T00:10:51.559Z,21.2
2018-03-26T00:11:03.714Z,21.2
2018-03-26T00:11:15.862Z,21.2
2018-03-26T00:11:28.007Z,21.2
2018-03-26T00:11:40.207Z,21.2
2018-03-26T00:11:52.365Z,21.2
2018-03-26T00:12:04.509Z,21.2
2018-03-26T00:12:16.736Z,21.2
2018-03-26T00:12:28.941Z,21.2
2018-03-26T00:12:41.120Z,21.2
2018-03-26T00:12:53.413Z,21.2
2018-03-26T00:13:05.571Z,21.2
2018-03-26T00:13:17.723Z,21.2
2018-03-26T00:13:29.852Z,21.2
2018-03-26T00:13:41.973Z,20.27
2018-03-26T00:13:54.119Z,20.27
2018-03-26T00:14:06.268Z,20.27
2018-03-26T00:14:18.398Z,20.27
2018-03-26T00:14:30.535Z,20.27
2018-03-26T00:14:42.671Z,20.27
2018-03-26T00:14:54.828Z,20.27
2018-03-26T00:15:06.993Z,20.27
2018-03-26T00:15:19.129Z,20.27
2018-03-26T00:15:31.259Z,20.27
2018-03-26T00:15:43.451Z,20.27
2018-03-26T00:15:55.592Z,20.27
2018-03-26T00:16:07.762Z,20.27
2018-03-26T00:16:19.929Z,20.27
2018-03-26T00:16:32.070Z,20.27
2018-03-26T00:16:44.200Z,20.4
2018-03-26T00:16:56.340Z,20.4
2018-03-26T00:17:08.530Z,20.4
2018-03-26T00:17:20.676Z,20.4
2018-03-26T00:17:32.810Z,20.4
2018-03-26T00:17:44.959Z,20.4
2018-03-26T00:17:57.126Z,20.4
2018-03-26T00:18:09.251Z,20.4
2018-03-26T00:18:21.385Z,20.4
2018-03-26T00:18:33.570Z,20.4
2018-03-26T00:18:45.702Z,20.4
2018-03-26T00:18:57.845Z,20.4
2018-03-26T00:19:09.998Z,20.4
2018-03-26T00:19:22.205Z,20.4
2018-03-26T00:19:34.338Z,20.4
2018-03-26T00:19:46.493Z,20.22
2018-03-26T00:19:58.672Z,20.22
2018-03-26T00:20:10.832Z,20.22
2018-03-26T00:20:22.990Z,20.22
2018-03-26T00:20:35.128Z,20.22
2018-03-26T00:20:47.271Z,20.22
2018-03-26T00:20:59.419Z,20.22
2018-03-26T00:21:11.577Z,20.22
2018-03-26T00:21:23.709Z,20.22
2018-03-26T00:21:35.833Z,20.22
2018-03-26T00:21:48.041Z,20.22
2018-03-26T00:22:00.445Z,20.22
2018-03-26T00:22:12.610Z,20.22
2018-03-26T00:22:24.767Z,20.22
2018-03-26T00:22:36.938Z,20.22
2018-03-26T00:22:49.078Z,20.8
2018-03-26T00:23:01.248Z,20.8
2018-03-26T00:23:13.396Z,20.8
2018-03-26T00:23:25.527Z,20.8
2018-03-26T00:23:37.677Z,20.8
2018-03-26T00:23:49.827Z,20.8
2018-03-26T00:24:01.976Z,20.8
2018-03-26T00:24:14.131Z,20.8
2018-03-26T00:24:26.277Z,20.8
2018-03-26T00:24:38.438Z,20.8
2018-03-26T00:24:50.594Z,20.8
2018-03-26T00:25:02.792Z,20.8
2018-03-26T00:25:14.941Z,20.8
2018-03-26T00:25:27.059Z,20.8
2018-03-26T00:25:39.232Z,20.8
2018-03-26T00:25:51.387Z,21.25
2018-03-26T00:26:03.563Z,21.25
2018-03-26T00:26:15.677Z,21.25
2018-03-26T00:26:27.871Z,21.25
2018-03-26T00:26:40.007Z,21.25
2018-03-26T00:26:52.177Z,21.25
2018-03-26T00:27:04.316Z,21.25
2018-03-26T00:27:16.868Z,21.25
2018-03-26T00:27:29.029Z,21.25
2018-03-26T00:27:41.175Z,21.25
2018-03-26T00:27:53.468Z,21.25
2018-03-26T00:28:05.619Z,21.25
2018-03-26T00:28:17.807Z,21.25
2018-03-26T00:28:29.944Z,21.25
2018-03-26T00:28:42.075Z,20.66
2018-03-26T00:28:54.229Z,20.66
2018-03-26T00:29:06.405Z,20.66
2018-03-26T00:29:18.561Z,20.66
2018-03-26T00:29:30.704Z,20.66
2018-03-26T00:29:42.833Z,20.66
2018-03-26T00:29:55.005Z,20.66
2018-03-26T00:30:07.157Z,20.66
2018-03-26T00:30:19.328Z,20.66
2018-03-26T00:30:31.464Z,20.66
2018-03-26T00:30:43.609Z,20.66
2018-03-26T00:30:55.737Z,20.66
2018-03-26T00:31:07.871Z,20.66
2018-03-26T00:31:20.018Z,20.66
2018-03-26T00:31:32.159Z,20.66
2018-03-26T00:31:44.306Z,20.1
2018-03-26T00:31:56.454Z,20.1
2018-03-26T00:32:08.589Z,20.1
2018-03-26T00:32:20.729Z,20.1
2018-03-26T00:32:32.882Z,20.1
2018-03-26T00:32:45.038Z,20.1
2018-03-26T00:32:57.218Z,20.1
2018-03-26T00:33:09.352Z,20.1
2018-03-26T00:33:21.467Z,20.1
2018-03-26T00:33:33.607Z,20.1
2018-03-26T00:33:45.734Z,20.1
2018-03-26T00:33:57.871Z,20.1
2018-03-26T00:34:10.030Z,20.1
2018-03-26T00:34:22.250Z,20.1
2018-03-26T00:34:34.411Z,20.1
2018-03-26T00:34:46.682Z,21.08
2018-03-26T00:34:59.195Z,21.08
2018-03-26T00:35:11.328Z,21.08
2018-03-26T00:35:23.468Z,21.08
2018-03-26T00:35:35.604Z,21.08
2018-03-26T00:35:47.749Z,21.08
2018-03-26T00:35:59.897Z,21.08
2018-03-26T00:36:12.032Z,21.08
2018-03-26T00:36:24.251Z,21.08
2018-03-26T00:36:36.378Z,21.08
2018-03-26T00:36:48.533Z,21.08
2018-03-26T00:37:00.728Z,21.08
2018-03-26T00:37:12.918Z,21.08
2018-03-26T00:37:25.121Z,21.08
2018-03-26T00:37:37.340Z,21.08
2018-03-26T00:37:49.525Z,20.93
2018-03-26T00:38:01.658Z,20.93
2018-03-26T00:38:13.799Z,20.93
2018-03-26T00:38:25.933Z,20.93
2018-03-26T00:38:38.134Z,20.93
2018-03-26T00:38:50.299Z,20.93
2018-03-26T00:39:02.450Z,20.93
2018-03-26T00:39:14.607Z,20.93
2018-03-26T00:39:26.762Z,20.93
2018-03-26T00:39:38.890Z,20.93
2018-03-26T00:39:51.034Z,20.93
2018-03-26T00:40:03.175Z,20.93
2018-03-26T00:40:15.324Z,20.93
2018-03-26T00:40:27.517Z,20.93
2018-03-26T00:40:39.678Z,20.93
2018-03-26T00:40:51.815Z,21.31
2018-03-26T00:41:03.952Z,21.31
2018-03-26T00:41:16.236Z,21.31
2018-03-26T00:41:28.486Z,21.31
2018-03-26T00:41:40.665Z,21.31
2018-03-26T00:41:52.802Z,21.31
2018-03-26T00:42:04.948Z,21.31
2018-03-26T00:42:17.114Z,21.31
2018-03-26T00:42:29.243Z,21.31
2018-03-26T00:42:41.395Z,21.31
2018-03-26T00:42:53.533Z,21.31
2018-03-26T00:43:05.712Z,21.31
2018-03-26T00:43:17.872Z,21.31
2018-03-26T00:43:30.017Z,21.31
2018-03-26T00:43:42.167Z,21.31
2018-03-26T00:43:54.319Z,21.77
2018-03-26T00:44:06.475Z,21.77
2018-03-26T00:44:18.654Z,21.77
2018-03-26T00:44:30.786Z,21.77
2018-03-26T00:44:42.936Z,21.77
2018-03-26T00:44:55.073Z,21.77
2018-03-26T00:45:07.206Z,21.77
2018-03-26T00:45:19.339Z,21.77
2018-03-26T00:45:31.464Z,21.77
2018-03-26T00:45:43.632Z,21.77
2018-03-26T00:45:55.762Z,21.77
2018-03-26T00:46:07.911Z,21.77
2018-03-26T00:46:20.454Z,21.77
2018-03-26T00:46:32.600Z,21.77
2018-03-26T00:46:44.739Z,21.35
2018-03-26T00:46:56.886Z,21.35
2018-03-26T00:47:09.020Z,21.35
2018-03-26T00:47:21.209Z,21.35
2018-03-26T00:47:33.371Z,21.35
2018-03-26T00:47:45.496Z,21.35
2018-03-26T00:47:57.805Z,21.35
2018-03-26T00:48:09.969Z,21.35
2018-03-26T00:48:22.106Z,21.35
2018-03-26T00:48:34.267Z,21.35
2018-03-26T00:48:46.413Z,21.35
2018-03-26T00:48:58.559Z,21.35
2018-03-26T00:49:10.797Z,21.35
2018-03-26T00:49:22.962Z,21.35
2018-03-26T00:49:35.137Z,21.35
2018-03-26T00:49:47.277Z,21.88
2018-03-26T00:49:59.417Z,21.88
2018-03-26T00:50:11.615Z,21.88
2018-03-26T00:50:23.809Z,21.88
2018-03-26T00:50:35.950Z,21.88
2018-03-26T00:50:48.107Z,21.88
2018-03-26T00:51:00.242Z,21.88
2018-03-26T00:51:12.406Z,21.88
2018-03-26T00:51:24.537Z,21.88
2018-03-26T00:51:36.674Z,21.88
2018-03-26T00:51:48.830Z,21.88
2018-03-26T00:52:00.958Z,21.88
2018-03-26T00:52:13.096Z,21.88
2018-03-26T00:52:25.237Z,21.88
2018-03-26T00:52:37.365Z,21.88
2018-03-26T00:52:49.712Z,21.38
2018-03-26T00:53:01.891Z,21.38
2018-03-26T00:53:14.039Z,21.38
2018-03-26T00:53:26.169Z,21.38
2018-03-26T00:53:38.295Z,21.38
2018-03-26T00:53:50.442Z,21.38
2018-03-26T00:54:02.572Z,21.38
2018-03-26T00:54:14.745Z,21.38
2018-03-26T00:54:26.892Z,21.38
2018-03-26T00:54:39.037Z,21.38
2018-03-26T00:54:51.177Z,21.38
2018-03-26T00:55:03.494Z,21.38
2018-03-26T00:55:15.614Z,21.38
2018-03-26T00:55:27.831Z,21.38
2018-03-26T00:55:39.965Z,21.38
2018-03-26T00:55:52.118Z,20.18
2018-03-26T00:56:04.254Z,20.18
2018-03-26T00:56:16.386Z,20.18
2018-03-26T00:56:28.679Z,20.18
2018-03-26T00:56:40.814Z,20.18
2018-03-26T00:56:52.947Z,20.18
2018-03-26T00:57:05.424Z,20.18
2018-03-26T00:57:17.547Z,20.18
2018-03-26T00:57:29.702Z,20.18
2018-03-26T00:57:41.827Z,20.18
2018-03-26T00:57:53.963Z,20.18
2018-03-26T00:58:06.113Z,20.18
2018-03-26T00:58:18.244Z,20.18
2018-03-26T00:58:30.379Z,20.18
2018-03-26T00:58:42.534Z,20.18
2018-03-26T00:58:54.669Z,19.94
2018-03-26T00:59:06.807Z,19.94
2018-03-26T00:59:18.955Z,19.94
2018-03-26T00:59:31.104Z,19.94
2018-03-26T00:59:43.243Z,19.94
2018-03-26T00:59:55.374Z,19.94
2018-03-26T01:00:07.517Z,19.94
2018-03-26T01:00:19.702Z,19.94
2018-03-26T01:00:31.842Z,19.94
2018-03-26T01:00:44.330Z,19.94
2018-03-26T01:00:56.461Z,19.94
2018-03-26T01:01:08.602Z,19.94
2018-03-26T01:01:20.770Z,19.94
2018-03-26T01:01:32.937Z,19.94
2018-03-26T01:01:45.061Z,19.94
2018-03-26T01:01:57.205Z,20.47
2018-03-26T01:02:09.386Z,20.47
2018-03-26T01:02:22.042Z,20.47
2018-03-26T01:02:34.183Z,20.47
2018-03-26T01:02:46.350Z,20.47
2018-03-26T01:02:58.496Z,20.47
2018-03-26T01:03:10.633Z,20.47
2018-03-26T01:03:22.764Z,20.47
2018-03-26T01:03:34.900Z,20.47
2018-03-26T01:03:47.073Z,20.47
2018-03-26T01:03:59.218Z,20.47
2018-03-26T01:04:11.356Z,20.47
2018-03-26T01:04:23.496Z,20.47
2018-03-26T01:04:35.671Z,20.47
2018-03-26T01:04:47.802Z,21
2018-03-26T01:04:59.931Z,21
2018-03-26T01:05:12.109Z,21
2018-03-26T01:05:24.254Z,21
2018-03-26T01:05:36.390Z,21
2018-03-26T01:05:48.540Z,21
2018-03-26T01:06:00.673Z,21
2018-03-26T01:06:12.810Z,21
2018-03-26T01:06:24.984Z,21
2018-03-26T01:06:37.135Z,21
2018-03-26T01:06:49.269Z,21
2018-03-26T01:07:01.481Z,21
2018-03-26T01:07:13.627Z,21
2018-03-26T01:07:25.753Z,21
2018-03-26T01:07:37.883Z,21
2018-03-26T01:07:50.023Z,21.78
2018-03-26T01:08:02.151Z,21.78
2018-03-26T01:08:14.287Z,21.78
2018-03-26T01:08:26.445Z,21.78
2018-03-26T01:08:38.652Z,21.78
2018-03-26T01:08:50.797Z,21.78
2018-03-26T01:09:03.015Z,21.78
2018-03-26T01:09:15.188Z,21.78
2018-03-26T01:09:27.341Z,21.78
2018-03-26T01:09:39.486Z,21.78
2018-03-26T01:09:51.682Z,21.78
2018-03-26T01:10:03.854Z,21.78
2018-03-26T01:10:16.008Z,21.78
2018-03-26T01:10:28.161Z,21.78
2018-03-26T01:10:40.307Z,21.78
2018-03-26T01:10:52.442Z,22.21
2018-03-26T01:11:04.589Z,22.21
2018-03-26T01:11:16.734Z,22.21
2018-03-26T01:11:28.938Z,22.21
2018-03-26T01:11:41.169Z,22.21
2018-03-26T01:11:53.311Z,22.21
2018-03-26T01:12:05.543Z,22.21
2018-03-26T01:12:17.703Z,22.21
2018-03-26T01:12:29.859Z,22.21
2018-03-26T01:12:42.019Z,22.21
2018-03-26T01:12:54.323Z,22.21
2018-03-26T01:13:06.905Z,22.21
2018-03-26T01:13:19.025Z,22.21
2018-03-26T01:13:31.173Z,22.21
2018-03-26T01:13:43.315Z,22.21
2018-03-26T01:13:55.461Z,21.77
2018-03-26T01:14:07.609Z,21.77
2018-03-26T01:14:19.747Z,21.77
2018-03-26T01:14:31.893Z,21.77
2018-03-26T01:14:44.020Z,21.77
2018-03-26T01:14:56.152Z,21.77
2018-03-26T01:15:08.345Z,21.77
2018-03-26T01:15:20.477Z,21.77
2018-03-26T01:15:32.609Z,21.77
2018-03-26T01:15:44.766Z,21.77
2018-03-26T01:15:56.890Z,21.77
2018-03-26T01:16:09.028Z,21.77
2018-03-26T01:16:21.187Z,21.77
2018-03-26T01:16:33.358Z,21.77
2018-03-26T01:16:45.487Z,21.77
2018-03-26T01:16:57.635Z,21.93
2018-03-26T01:17:09.762Z,21.93
2018-03-26T01:17:21.910Z,21.93
2018-03-26T01:17:34.044Z,21.93
2018-03-26T01:17:46.281Z,21.93
2018-03-26T01:17:58.572Z,21.93
2018-03-26T01:18:10.723Z,21.93
2018-03-26T01:18:22.862Z,21.93
2018-03-26T01:18:35.020Z,21.93
2018-03-26T01:18:47.202Z,21.93
2018-03-26T01:18:59.321Z,21.93
2018-03-26T01:19:11.477Z,21.93
2018-03-26T01:19:23.603Z,21.93
2018-03-26T01:19:35.750Z,21.93
2018-03-26T01:19:47.891Z,21.93
2018-03-26T01:20:00.033Z,21.31
2018-03-26T01:20:12.166Z,21.31
2018-03-26T01:20:24.327Z,21.31
2018-03-26T01:20:36.458Z,21.31
2018-03-26T01:20:48.603Z,21.31
2018-03-26T01:21:00.731Z,21.31
2018-03-26T01:21:12.866Z,21.31
2018-03-26T01:21:25.015Z,21.31
2018-03-26T01:21:37.163Z,21.31
2018-03-26T01:21:49.308Z,21.31
2018-03-26T01:22:01.441Z,21.31
2018-03-26T01:22:13.591Z,21.31
2018-03-26T01:22:25.734Z,21.31
2018-03-26T01:22:37.862Z,21.31
2018-03-26T01:22:50.067Z,20.06
2018-03-26T01:23:02.215Z,20.06
2018-03-26T01:23:14.346Z,20.06
2018-03-26T01:23:26.504Z,20.06
2018-03-26T01:23:38.635Z,20.06
2018-03-26T01:23:50.762Z,20.06
2018-03-26T01:24:02.926Z,20.06
2018-03-26T01:24:15.077Z,20.06
2018-03-26T01:24:27.193Z,20.06
2018-03-26T01:24:39.321Z,20.06
2018-03-26T01:24:51.444Z,20.06
2018-03-26T01:25:03.572Z,20.06
2018-03-26T01:25:15.725Z,20.06
2018-03-26T01:25:27.901Z,20.06
2018-03-26T01:25:40.040Z,20.06
2018-03-26T01:25:52.166Z,19.71
2018-03-26T01:26:04.301Z,19.71
2018-03-26T01:26:16.436Z,19.71
2018-03-26T01:26:28.576Z,19.71
2018-03-26T01:26:40.727Z,19.71
2018-03-26T01:26:52.859Z,19.71
2018-03-26T01:27:04.997Z,19.71
2018-03-26T01:27:17.138Z,19.71
2018-03-26T01:27:29.277Z,19.71
2018-03-26T01:27:41.422Z,19.71
2018-03-26T01:27:53.762Z,19.71
2018-03-26T01:28:05.892Z,19.71
2018-03-26T01:28:18.070Z,19.71
2018-03-26T01:28:30.205Z,19.71
2018-03-26T01:28:42.340Z,19.71
2018-03-26T01:28:54.464Z,19.73
2018-03-26T01:29:06.653Z,19.73
2018-03-26T01:29:18.792Z,19.73
2018-03-26T01:29:30.934Z,19.73
2018-03-26T01:29:43.090Z,19.73
2018-03-26T01:29:55.257Z,19.73
2018-03-26T01:30:07.391Z,19.73
2018-03-26T01:30:19.516Z,19.73
2018-03-26T01:30:31.685Z,19.73
2018-03-26T01:30:43.827Z,19.73
2018-03-26T01:30:55.959Z,19.73
2018-03-26T01:31:08.122Z,19.73
2018-03-26T01:31:20.242Z,19.73
2018-03-26T01:31:32.388Z,19.73
2018-03-26T01:31:44.523Z,19.73
2018-03-26T01:31:56.664Z,19.59
2018-03-26T01:32:08.792Z,19.59
2018-03-26T01:32:20.973Z,19.59
2018-03-26T01:32:33.117Z,19.59
2018-03-26T01:32:45.253Z,19.59
2018-03-26T01:32:57.365Z,19.59
2018-03-26T01:33:09.495Z,19.59
2018-03-26T01:33:21.678Z,19.59
2018-03-26T01:33:33.823Z,19.59
2018-03-26T01:33:45.955Z,19.59
2018-03-26T01:33:58.112Z,19.59
2018-03-26T01:34:10.248Z,19.59
2018-03-26T01:34:22.370Z,19.59
2018-03-26T01:34:34.521Z,19.59
2018-03-26T01:34:46.674Z,19.59
2018-03-26T01:34:58.887Z,19.4
2018-03-26T01:35:11.012Z,19.4
2018-03-26T01:35:23.132Z,19.4
2018-03-26T01:35:35.280Z,19.4
2018-03-26T01:35:47.408Z,19.4
2018-03-26T01:35:59.548Z,19.4
2018-03-26T01:36:11.680Z,19.4
2018-03-26T01:36:23.886Z,19.4
2018-03-26T01:36:36.090Z,19.4
2018-03-26T01:36:48.214Z,19.4
2018-03-26T01:37:00.355Z,19.4
2018-03-26T01:37:12.518Z,19.4
2018-03-26T01:37:24.648Z,19.4
2018-03-26T01:37:36.928Z,19.4
2018-03-26T01:37:49.082Z,19.4
2018-03-26T01:38:01.222Z,19.87
2018-03-26T01:38:13.359Z,19.87
2018-03-26T01:38:25.490Z,19.87
2018-03-26T01:38:37.616Z,19.87
2018-03-26T01:38:49.774Z,19.87
2018-03-26T01:39:01.960Z,19.87
2018-03-26T01:39:14.109Z,19.87
2018-03-26T01:39:26.391Z,19.87
2018-03-26T01:39:38.529Z,19.87
2018-03-26T01:39:50.676Z,19.87
2018-03-26T01:40:02.844Z,19.87
2018-03-26T01:40:15.064Z,19.87
2018-03-26T01:40:27.200Z,19.87
2018-03-26T01:40:39.317Z,19.87
2018-03-26T01:40:51.470Z,19.75
2018-03-26T01:41:03.616Z,19.75
2018-03-26T01:41:15.919Z,19.75
2018-03-26T01:41:28.062Z,19.75
2018-03-26T01:41:40.196Z,19.75
2018-03-26T01:41:52.354Z,19.75
2018-03-26T01:42:04.490Z,19.75
2018-03-26T01:42:16.633Z,19.75
2018-03-26T01:42:28.771Z,19.75
2018-03-26T01:42:40.938Z,19.75
2018-03-26T01:42:53.065Z,19.75
2018-03-26T01:43:05.219Z,19.75
2018-03-26T01:43:17.455Z,19.75
2018-03-26T01:43:29.649Z,19.75
2018-03-26T01:43:41.786Z,19.75
2018-03-26T01:43:53.913Z,19.5
2018-03-26T01:44:06.052Z,19.5
2018-03-26T01:44:18.181Z,19.5
2018-03-26T01:44:30.314Z,19.5
2018-03-26T01:44:42.465Z,19.5
2018-03-26T01:44:54.612Z,19.5
2018-03-26T01:45:06.761Z,19.5
2018-03-26T01:45:18.894Z,19.5
2018-03-26T01:45:31.032Z,19.5
2018-03-26T01:45:43.186Z,19.5
2018-03-26T01:45:55.317Z,19.5
2018-03-26T01:46:07.444Z,19.5
2018-03-26T01:46:19.620Z,19.5
2018-03-26T01:46:31.739Z,19.5
2018-03-26T01:46:43.872Z,19.5
2018-03-26T01:46:56.070Z,19.19
2018-03-26T01:47:08.222Z,19.19
2018-03-26T01:47:20.366Z,19.19
2018-03-26T01:47:32.511Z,19.19
2018-03-26T01:47:44.657Z,19.19
2018-03-26T01:47:56.953Z,19.19
2018-03-26T01:48:09.103Z,19.19
2018-03-26T01:48:21.258Z,19.19
2018-03-26T01:48:33.411Z,19.19
2018-03-26T01:48:45.576Z,19.19
2018-03-26T01:48:57.698Z,19.19
2018-03-26T01:49:09.840Z,19.19
2018-03-26T01:49:21.986Z,19.19
2018-03-26T01:49:34.139Z,19.19
2018-03-26T01:49:46.276Z,19.19
2018-03-26T01:49:58.397Z,18.67
2018-03-26T01:50:10.556Z,18.67
2018-03-26T01:50:22.707Z,18.67
2018-03-26T01:50:34.859Z,18.67
2018-03-26T01:50:47.000Z,18.67
2018-03-26T01:50:59.138Z,18.67
2018-03-26T01:51:11.270Z,18.67
2018-03-26T01:51:23.428Z,18.67
2018-03-26T01:51:35.594Z,18.67
2018-03-26T01:51:47.725Z,18.67
2018-03-26T01:51:59.903Z,18.67
2018-03-26T01:52:12.188Z,18.67
2018-03-26T01:52:24.341Z,18.67
2018-03-26T01:52:36.499Z,18.67
2018-03-26T01:52:48.842Z,18.67
2018-03-26T01:53:01.017Z,19.5
2018-03-26T01:53:13.162Z,19.5
2018-03-26T01:53:25.296Z,19.5
2018-03-26T01:53:37.483Z,19.5
2018-03-26T01:53:49.613Z,19.5
2018-03-26T01:54:01.767Z,19.5
2018-03-26T01:54:13.991Z,19.5
2018-03-26T01:54:26.195Z,19.5
2018-03-26T01:54:38.327Z,19.5
2018-03-26T01:54:50.537Z,19.5
2018-03-26T01:55:02.782Z,19.5
2018-03-26T01:55:14.935Z,19.5
2018-03-26T01:55:27.065Z,19.5
2018-03-26T01:55:39.209Z,19.5
2018-03-26T01:55:51.399Z,19.5
2018-03-26T01:56:03.556Z,20.73
2018-03-26T01:56:15.704Z,20.73
2018-03-26T01:56:27.847Z,20.73
2018-03-26T01:56:40.287Z,20.73
2018-03-26T01:56:52.422Z,20.73
2018-03-26T01:57:04.567Z,20.73
2018-03-26T01:57:16.689Z,20.73
2018-03-26T01:57:28.824Z,20.73
2018-03-26T01:57:40.958Z,20.73
2018-03-26T01:57:53.084Z,20.73
2018-03-26T01:58:05.232Z,20.73
2018-03-26T01:58:17.365Z,20.73
2018-03-26T01:58:29.499Z,20.73
2018-03-26T01:58:41.648Z,20.73
2018-03-26T01:58:53.802Z,20.23
2018-03-26T01:59:06.296Z,20.23
2018-03-26T01:59:18.428Z,20.23
2018-03-26T01:59:30.588Z,20.23
2018-03-26T01:59:42.717Z,20.23
2018-03-26T01:59:54.878Z,20.23
2018-03-26T02:00:07.047Z,20.23
2018-03-26T02:00:19.226Z,20.23
2018-03-26T02:00:31.410Z,20.23
2018-03-26T02:00:43.542Z,20.23
2018-03-26T02:00:56.029Z,20.23
2018-03-26T02:01:08.184Z,20.23
2018-03-26T02:01:20.333Z,20.23
2018-03-26T02:01:32.498Z,20.23
2018-03-26T02:01:44.634Z,20.23
2018-03-26T02:01:56.769Z,19.67
2018-03-26T02:02:08.932Z,19.67
2018-03-26T02:02:21.066Z,19.67
2018-03-26T02:02:33.381Z,19.67
2018-03-26T02:02:45.517Z,19.67
2018-03-26T02:02:57.686Z,19.67
2018-03-26T02:03:09.892Z,19.67
2018-03-26T02:03:22.030Z,19.67
2018-03-26T02:03:34.168Z,19.67
2018-03-26T02:03:46.305Z,19.67
2018-03-26T02:03:58.444Z,19.67
2018-03-26T02:04:10.587Z,19.67
2018-03-26T02:04:22.737Z,19.67
2018-03-26T02:04:34.906Z,19.67
2018-03-26T02:04:47.346Z,19.67
2018-03-26T02:04:59.622Z,20.1
2018-03-26T02:05:11.786Z,20.1
2018-03-26T02:05:23.920Z,20.1
2018-03-26T02:05:36.064Z,20.1
2018-03-26T02:05:48.335Z,20.1
2018-03-26T02:06:00.490Z,20.1
2018-03-26T02:06:12.681Z,20.1
2018-03-26T02:06:24.833Z,20.1
2018-03-26T02:06:36.970Z,20.1
2018-03-26T02:06:49.115Z,20.1
2018-03-26T02:07:01.262Z,20.1
2018-03-26T02:07:13.405Z,20.1
2018-03-26T02:07:25.562Z,20.1
2018-03-26T02:07:37.716Z,20.1
2018-03-26T02:07:49.848Z,20.1
2018-03-26T02:08:02.006Z,19.63
2018-03-26T02:08:14.148Z,19.63
2018-03-26T02:08:26.337Z,19.63
2018-03-26T02:08:38.474Z,19.63
2018-03-26T02:08:50.639Z,19.63
2018-03-26T02:09:02.767Z,19.63
2018-03-26T02:09:14.891Z,19.63
2018-03-26T02:09:27.030Z,19.63
2018-03-26T02:09:39.175Z,19.63
2018-03-26T02:09:51.325Z,19.63
2018-03-26T02:10:03.447Z,19.63
2018-03-26T02:10:15.577Z,19.63
2018-03-26T02:10:27.703Z,19.63
2018-03-26T02:10:39.823Z,19.63
2018-03-26T02:10:51.944Z,19.63
2018-03-26T02:11:04.090Z,19.37
2018-03-26T02:11:16.227Z,19.37
2018-03-26T02:11:28.368Z,19.37
2018-03-26T02:11:40.552Z,19.37
2018-03-26T02:11:52.700Z,19.37
2018-03-26T02:12:04.824Z,19.37
2018-03-26T02:12:16.951Z,19.37
2018-03-26T02:12:29.164Z,19.37
2018-03-26T02:12:41.298Z,19.37
2018-03-26T02:12:53.602Z,19.37
2018-03-26T02:13:05.750Z,19.37
2018-03-26T02:13:17.880Z,19.37
2018-03-26T02:13:30.009Z,19.37
2018-03-26T02:13:42.156Z,19.37
2018-03-26T02:13:54.325Z,19.37
2018-03-26T02:14:06.466Z,18.69
2018-03-26T02:14:18.599Z,18.69
2018-03-26T02:14:30.759Z,18.69
2018-03-26T02:14:42.899Z,18.69
2018-03-26T02:14:55.058Z,18.69
2018-03-26T02:15:07.199Z,18.69
2018-03-26T02:15:19.353Z,18.69
2018-03-26T02:15:31.476Z,18.69
2018-03-26T02:15:43.606Z,18.69
2018-03-26T02:15:55.811Z,18.69
2018-03-26T02:16:07.967Z,18.69
2018-03-26T02:16:20.096Z,18.69
2018-03-26T02:16:32.236Z,18.69
2018-03-26T02:16:44.418Z,18.69
2018-03-26T02:16:56.535Z,19.59
2018-03-26T02:17:08.697Z,19.59
2018-03-26T02:17:20.835Z,19.59
2018-03-26T02:17:32.976Z,19.59
2018-03-26T02:17:45.106Z,19.59
2018-03-26T02:17:57.287Z,19.59
2018-03-26T02:18:09.547Z,19.59
2018-03-26T02:18:21.703Z,19.59
2018-03-26T02:18:33.824Z,19.59
2018-03-26T02:18:45.954Z,19.59
2018-03-26T02:18:58.096Z,19.59
2018-03-26T02:19:10.273Z,19.59
2018-03-26T02:19:22.430Z,19.59
2018-03-26T02:19:34.572Z,19.59
2018-03-26T02:19:46.713Z,19.59
2018-03-26T02:19:58.873Z,19.68
2018-03-26T02:20:11.065Z,19.68
2018-03-26T02:20:23.258Z,19.68
2018-03-26T02:20:35.404Z,19.68
2018-03-26T02:20:47.556Z,19.68
2018-03-26T02:20:59.690Z,19.68
2018-03-26T02:21:11.837Z,19.68
2018-03-26T02:21:23.962Z,19.68
2018-03-26T02:21:36.080Z,19.68
2018-03-26T02:21:48.221Z,19.68
2018-03-26T02:22:00.370Z,19.68
2018-03-26T02:22:12.518Z,19.68
2018-03-26T02:22:24.666Z,19.68
2018-03-26T02:22:36.789Z,19.68
2018-03-26T02:22:48.937Z,19.68
2018-03-26T02:23:01.112Z,19.48
2018-03-26T02:23:13.295Z,19.48
2018-03-26T02:23:25.447Z,19.48
2018-03-26T02:23:37.647Z,19.48
2018-03-26T02:23:49.784Z,19.48
2018-03-26T02:24:01.931Z,19.48
2018-03-26T02:24:14.110Z,19.48
2018-03-26T02:24:26.251Z,19.48
2018-03-26T02:24:38.383Z,19.48
2018-03-26T02:24:50.506Z,19.48
2018-03-26T02:25:02.682Z,19.48
2018-03-26T02:25:14.868Z,19.48
2018-03-26T02:25:26.995Z,19.48
2018-03-26T02:25:39.131Z,19.48
2018-03-26T02:25:51.287Z,19.48
2018-03-26T02:26:03.445Z,19.71
2018-03-26T02:26:15.591Z,19.71
2018-03-26T02:26:27.714Z,19.71
2018-03-26T02:26:40.095Z,19.71
2018-03-26T02:26:52.536Z,19.71
2018-03-26T02:27:04.686Z,19.71
2018-03-26T02:27:16.814Z,19.71
2018-03-26T02:27:28.949Z,19.71
2018-03-26T02:27:41.141Z,19.71
2018-03-26T02:27:53.504Z,19.71
2018-03-26T02:28:05.654Z,19.71
2018-03-26T02:28:17.797Z,19.71
2018-03-26T02:28:29.929Z,19.71
2018-03-26T02:28:42.106Z,19.71
2018-03-26T02:28:54.255Z,19.71
2018-03-26T02:29:06.387Z,19.77
2018-03-26T02:29:18.525Z,19.77
2018-03-26T02:29:30.663Z,19.77
2018-03-26T02:29:42.826Z,19.77
2018-03-26T02:29:55.103Z,19.77
2018-03-26T02:30:07.269Z,19.77
2018-03-26T02:30:19.540Z,19.77
2018-03-26T02:30:31.736Z,19.77
2018-03-26T02:30:44.044Z,19.77
2018-03-26T02:30:56.190Z,19.77
2018-03-26T02:31:08.362Z,19.77
2018-03-26T02:31:20.538Z,19.77
2018-03-26T02:31:32.947Z,19.77
2018-03-26T02:31:45.162Z,19.77
2018-03-26T02:31:57.338Z,18.76
2018-03-26T02:32:09.514Z,18.76
2018-03-26T02:32:21.698Z,18.76
2018-03-26T02:32:33.853Z,18.76
2018-03-26T02:32:46.056Z,18.76
2018-03-26T02:32:58.226Z,18.76
2018-03-26T02:33:10.411Z,18.76
2018-03-26T02:33:22.604Z,18.76
2018-03-26T02:33:34.794Z,18.76
2018-03-26T02:33:46.963Z,18.76
2018-03-26T02:33:59.167Z,18.76
2018-03-26T02:34:11.387Z,18.76
2018-03-26T02:34:23.547Z,18.76
2018-03-26T02:34:35.721Z,18.76
2018-03-26T02:34:47.908Z,18.76
2018-03-26T02:35:00.065Z,17.84
2018-03-26T02:35:12.274Z,17.84
2018-03-26T02:35:24.431Z,17.84
2018-03-26T02:35:36.597Z,17.84
2018-03-26T02:35:48.794Z,17.84
2018-03-26T02:36:00.950Z,17.84
2018-03-26T02:36:13.112Z,17.84
2018-03-26T02:36:25.320Z,17.84
2018-03-26T02:36:37.487Z,17.84
2018-03-26T02:36:49.705Z,17.84
2018-03-26T02:37:01.856Z,17.84
2018-03-26T02:37:14.068Z,17.84
2018-03-26T02:37:26.229Z,17.84
2018-03-26T02:37:38.571Z,17.84